Time;durP1;ratioP1;P1;durP2;ratioP2;P2;SDS_P1;SDS_P2;PMS_P1;PMS_P2;Temp;Humidity;BMP_temperature;BMP_pressure;BME280_temperature;BME280_humidity;BME280_pressure;Samples;Min_cycle;Max_cycle;Signal;HPM_P1;HPM_P2
2022/07/29 00:00:31;;;;;;;5.28;2.52;;;;;;;20.59;100.00;99951.81;1803561;79;21029;-75
2022/07/29 00:02:58;;;;;;;2.60;2.40;;;;;;;20.57;100.00;99951.22;1803588;79;21542;-75
2022/07/29 00:05:25;;;;;;;3.08;2.30;;;;;;;20.55;100.00;99952.00;1803634;79;21009;-74
2022/07/29 00:07:52;;;;;;;2.83;2.25;;;;;;;20.51;100.00;99941.20;1803444;79;21048;-76
2022/07/29 00:10:19;;;;;;;2.80;2.55;;;;;;;20.48;100.00;99946.63;1803769;79;20949;-76
2022/07/29 00:12:46;;;;;;;3.62;2.50;;;;;;;20.48;100.00;99948.00;1803709;79;21036;-76
2022/07/29 00:15:14;;;;;;;3.80;2.50;;;;;;;20.48;100.00;99942.50;1804009;79;20997;-76
2022/07/29 00:17:43;;;;;;;4.05;2.45;;;;;;;20.47;100.00;99950.46;1803578;79;21455;-76
2022/07/29 00:20:10;;;;;;;4.92;2.40;;;;;;;20.45;100.00;99953.95;1803928;79;20989;-76
2022/07/29 00:22:38;;;;;;;2.42;2.33;;;;;;;20.43;100.00;99954.73;1804510;79;21008;-75
2022/07/29 00:25:07;;;;;;;2.52;2.33;;;;;;;20.42;100.00;99950.34;1804558;79;21502;-75
2022/07/29 00:27:35;;;;;;;2.90;2.70;;;;;;;20.41;100.00;99953.59;1803781;79;21004;-76
2022/07/29 00:30:04;;;;;;;2.67;2.47;;;;;;;20.41;100.00;99945.91;1803500;79;21017;-76
2022/07/29 00:32:31;;;;;;;2.75;2.40;;;;;;;20.40;100.00;99945.63;1803987;79;21020;-75
2022/07/29 00:37:43;;;;;;;4.03;2.40;;;;;;;20.37;100.00;99957.91;1803509;79;21065;-76
2022/07/29 00:40:11;;;;;;;3.27;2.50;;;;;;;20.37;100.00;99961.20;1803826;79;21009;-75
2022/07/29 00:42:50;;;;;;;2.98;2.62;;;;;;;20.35;100.00;99958.69;1803467;79;21024;-75
2022/07/29 00:45:17;;;;;;;3.75;2.67;;;;;;;20.33;100.00;99954.48;1803824;79;21499;-75
2022/07/29 00:47:44;;;;;;;3.65;2.50;;;;;;;20.32;100.00;99962.44;1802986;79;21803;-76
2022/07/29 00:50:12;;;;;;;2.72;2.45;;;;;;;20.32;100.00;99956.41;1803007;79;21001;-76
2022/07/29 00:52:41;;;;;;;4.45;2.40;;;;;;;20.33;100.00;99959.97;1802672;79;21029;-77
2022/07/29 00:55:12;;;;;;;5.08;2.35;;;;;;;20.32;100.00;99961.89;1802550;79;21052;-76
2022/07/29 00:57:40;;;;;;;4.62;2.58;;;;;;;20.32;100.00;99963.27;1682382;84;21038;-76
2022/07/29 01:00:11;;;;;;;2.62;2.42;;;;;;;20.31;100.00;99961.61;1682786;85;20963;-76
2022/07/29 01:02:38;;;;;;;2.50;2.30;;;;;;;20.30;100.00;99955.27;1682324;85;21045;-76
2022/07/29 01:05:06;;;;;;;4.58;2.52;;;;;;;20.32;100.00;99963.81;1682483;85;21555;-76
2022/07/29 01:07:35;;;;;;;2.85;2.60;;;;;;;20.30;100.00;99962.67;1682467;85;21023;-76
2022/07/29 01:10:05;;;;;;;2.40;2.20;;;;;;;20.29;100.00;99960.98;1682350;85;21058;-76
2022/07/29 01:12:34;;;;;;;3.65;2.40;;;;;;;20.27;100.00;99961.25;1682251;85;21034;-75
2022/07/29 01:15:02;;;;;;;2.45;2.25;;;;;;;20.28;100.00;99958.79;1682545;85;21042;-75
2022/07/29 01:17:52;;;;;;;4.87;2.52;;;;;;;20.31;100.00;99957.50;1682332;85;21042;-76
2022/07/29 01:20:45;;;;;;;7.90;2.90;;;;;;;20.32;100.00;99946.80;1678190;85;21567;-76
2022/07/29 01:23:38;;;;;;;3.33;2.70;;;;;;;20.35;100.00;99957.86;1682335;85;21094;-76
2022/07/29 01:26:13;;;;;;;3.20;2.67;;;;;;;20.34;100.00;99961.66;1682480;85;21066;-76
2022/07/29 01:28:58;;;;;;;2.83;2.30;;;;;;;20.32;100.00;99961.89;1682634;85;21058;-77
2022/07/29 01:32:05;;;;;;;2.70;2.50;;;;;;;20.31;100.00;99956.13;1682464;84;21034;-76
2022/07/29 01:34:48;;;;;;;6.08;2.83;;;;;;;20.31;100.00;99956.13;1682381;84;21046;-76
2022/07/29 01:37:43;;;;;;;3.00;2.40;;;;;;;20.28;100.00;99952.47;1682298;85;21113;-77
2022/07/29 01:40:16;;;;;;;4.03;2.60;;;;;;;20.26;100.00;99950.50;1628760;87;21089;-76
2022/07/29 01:42:44;;;;;;;3.52;2.30;;;;;;;20.23;100.00;99943.56;1517644;94;21075;-77
2022/07/29 01:45:26;;;;;;;2.87;2.40;;;;;;;20.21;100.00;99951.75;1521459;94;21083;-75
2022/07/29 01:48:07;;;;;;;4.10;2.42;;;;;;;20.15;100.00;99948.56;1501710;95;21148;-75
2022/07/29 01:50:38;;;;;;;3.17;2.40;;;;;;;20.09;100.00;99954.46;1480503;97;21060;-76
2022/07/29 01:53:08;;;;;;;3.98;2.62;;;;;;;20.03;100.00;99950.76;1480445;97;21127;-76
2022/07/29 01:55:42;;;;;;;3.45;3.05;;;;;;;19.99;100.00;99945.45;1525398;94;21112;-75
2022/07/29 01:58:09;;;;;;;2.90;2.60;;;;;;;19.96;100.00;99945.09;1527609;94;21124;-76
2022/07/29 02:00:37;;;;;;;4.25;2.52;;;;;;;19.93;100.00;99939.52;1527515;94;21137;-76
2022/07/29 02:03:09;;;;;;;2.60;2.40;;;;;;;19.89;100.00;99938.33;1527323;94;21125;-76
2022/07/29 02:05:36;;;;;;;3.90;2.35;;;;;;;19.85;100.00;99936.59;1527610;94;21579;-76
2022/07/29 02:08:04;;;;;;;3.70;2.40;;;;;;;19.81;100.00;99934.53;1527586;94;21539;-76
2022/07/29 02:10:32;;;;;;;2.98;2.60;;;;;;;;;;1527693;92;21551;-77
2022/07/29 02:12:59;;;;;;;2.60;2.40;;;;;;;19.69;100.00;99925.72;1527591;94;21053;-76
2022/07/29 02:15:29;;;;;;;4.15;2.72;;;;;;;19.66;100.00;99923.44;1527611;94;21101;-76
2022/07/29 02:18:02;;;;;;;4.90;2.45;;;;;;;19.64;100.00;99928.31;1581638;90;21114;-75
2022/07/29 02:20:29;;;;;;;3.40;2.52;;;;;;;19.64;100.00;99931.61;1596535;90;21075;-74
2022/07/29 02:22:57;;;;;;;3.50;2.55;;;;;;;19.64;100.00;99921.46;1600097;90;21067;-76
2022/07/29 02:25:25;;;;;;;3.37;2.80;;;;;;;19.65;100.00;99925.03;1607990;88;21095;-77
2022/07/29 02:27:51;;;;;;;6.78;2.80;;;;;;;19.66;100.00;99914.38;1636092;86;21091;-76
2022/07/29 02:30:20;;;;;;;5.05;2.80;;;;;;;19.66;100.00;99915.75;1665900;86;21095;-75
2022/07/29 02:32:46;;;;;;;3.77;2.62;;;;;;;19.66;100.00;99923.98;1666016;86;21554;-75
2022/07/29 02:35:15;;;;;;;4.53;2.90;;;;;;;19.64;100.00;99920.09;1643731;86;21653;-76
2022/07/29 02:37:44;;;;;;;3.20;2.70;;;;;;;19.65;100.00;99922.29;1665927;86;21114;-76
2022/07/29 02:40:12;;;;;;;5.15;2.62;;;;;;;19.63;100.00;99917.03;1665983;86;21013;-76
2022/07/29 02:42:40;;;;;;;4.35;2.80;;;;;;;19.64;100.00;99913.78;1665692;86;21088;-76
2022/07/29 02:45:09;;;;;;;3.55;2.70;;;;;;;19.64;100.00;99924.75;1688058;80;21013;-76
2022/07/29 02:47:46;;;;;;;2.80;2.60;;;;;;;19.63;100.00;99919.77;1799425;78;21048;-76
2022/07/29 02:50:17;;;;;;;5.15;2.90;;;;;;;19.63;100.00;99923.89;1799115;80;21000;-75
2022/07/29 02:52:58;;;;;;;4.55;3.00;;;;;;;19.59;100.00;99926.81;1705756;83;21081;-76
2022/07/29 02:55:29;;;;;;;4.25;2.83;;;;;;;19.56;100.00;99927.27;1705250;84;21069;-77
2022/07/29 02:58:28;;;;;;;4.95;2.92;;;;;;;19.53;100.00;99934.61;1705630;84;21013;-76
2022/07/29 03:01:01;;;;;;;3.50;2.80;;;;;;;19.52;100.00;99935.67;1681963;84;21121;-76
2022/07/29 03:03:32;;;;;;;4.83;2.95;;;;;;;19.55;100.00;99935.20;1705501;84;21049;-76
2022/07/29 03:06:00;;;;;;;2.80;2.60;;;;;;;19.63;100.00;99934.86;1705432;84;21018;-77
2022/07/29 03:08:27;;;;;;;4.78;2.65;;;;;;;19.70;100.00;99934.77;1705616;84;21005;-76
2022/07/29 03:10:55;;;;;;;5.85;3.35;;;;;;;19.78;100.00;99932.25;1705245;84;21104;-77
2022/07/29 03:13:22;;;;;;;5.03;2.77;;;;;;;19.83;100.00;99935.98;1705354;84;21014;-76
2022/07/29 03:15:49;;;;;;;6.05;2.90;;;;;;;19.87;100.00;99939.09;1705641;84;20958;-76
2022/07/29 03:18:17;;;;;;;3.40;2.60;;;;;;;19.88;100.00;99939.37;1705162;84;21094;-76
2022/07/29 03:20:45;;;;;;;4.87;2.70;;;;;;;19.84;100.00;99945.88;1705674;84;21614;-76
2022/07/29 03:23:12;;;;;;;3.00;2.70;;;;;;;19.78;100.00;99956.42;1705296;84;21073;-76
2022/07/29 03:25:39;;;;;;;3.15;2.67;;;;;;;19.73;100.00;99949.40;1682035;84;21006;-77
2022/07/29 03:28:06;;;;;;;6.65;3.15;;;;;;;19.72;100.00;99943.09;1705323;84;21053;-75
2022/07/29 03:30:33;;;;;;;5.72;3.05;;;;;;;19.74;100.00;99945.59;1705372;84;21073;-75
2022/07/29 03:33:01;;;;;;;3.85;2.80;;;;;;;19.73;100.00;99943.91;1705315;84;21509;-77
2022/07/29 03:35:28;;;;;;;5.17;3.02;;;;;;;19.71;100.00;99937.28;1706329;84;21082;-74
2022/07/29 03:37:56;;;;;;;5.35;3.05;;;;;;;19.73;100.00;99943.40;1708289;84;20990;-75
2022/07/29 03:40:35;;;;;;;3.22;2.70;;;;;;;19.78;100.00;99932.25;1662330;86;21033;-76
2022/07/29 03:43:01;;;;;;;3.70;2.67;;;;;;;19.83;100.00;99926.39;1653033;87;21022;-75
2022/07/29 03:45:30;;;;;;;7.47;2.83;;;;;;;19.88;100.00;99933.89;1647438;86;21026;-76
2022/07/29 03:48:03;;;;;;;5.60;2.72;;;;;;;19.94;100.00;99928.86;1642561;86;21068;-76
2022/07/29 03:50:29;;;;;;;3.58;2.80;;;;;;;20.01;100.00;99928.21;1601867;88;21064;-76
2022/07/29 03:52:58;;;;;;;4.20;2.70;;;;;;;20.09;100.00;99930.59;1651681;87;21079;-76
2022/07/29 03:55:26;;;;;;;3.95;3.12;;;;;;;20.17;100.00;99928.05;1656777;87;21658;-76
2022/07/29 03:57:53;;;;;;;5.03;2.90;;;;;;;20.23;100.00;99929.83;1656887;87;21039;-77
2022/07/29 04:00:21;;;;;;;6.60;3.90;;;;;;;20.30;100.00;99936.59;1656657;87;21059;-78
2022/07/29 04:02:48;;;;;;;6.12;2.77;;;;;;;20.36;100.00;99945.27;1612249;87;21128;-76
2022/07/29 04:05:15;;;;;;;3.52;2.80;;;;;;;20.41;100.00;99950.85;1656651;87;21098;-77
2022/07/29 04:07:45;;;;;;;7.62;3.40;;;;;;;20.47;100.00;99951.28;1656318;87;21059;-76
2022/07/29 04:10:12;;;;;;;4.75;2.95;;;;;;;20.52;100.00;99956.05;1656689;87;21099;-76
2022/07/29 04:12:40;;;;;;;5.42;2.90;;;;;;;20.57;100.00;99967.16;1656544;87;21136;-77
2022/07/29 04:15:08;;;;;;;3.17;2.83;;;;;;;20.63;100.00;99967.62;1656832;87;20999;-77
2022/07/29 04:17:37;;;;;;;4.78;2.90;;;;;;;20.70;100.00;99972.14;1656499;87;21490;-77
2022/07/29 04:20:06;;;;;;;6.08;2.92;;;;;;;20.76;100.00;99983.02;1656625;87;21134;-77
2022/07/29 04:22:33;;;;;;;5.03;3.22;;;;;;;20.84;100.00;99988.67;1656680;85;21043;-77
2022/07/29 04:25:02;;;;;;;3.70;3.15;;;;;;;20.91;100.00;99989.94;1656415;85;21134;-77
2022/07/29 04:27:29;;;;;;;5.12;3.02;;;;;;;20.96;100.00;99997.75;1656790;87;21019;-77
2022/07/29 04:29:57;;;;;;;5.30;2.90;;;;;;;21.02;100.00;99998.17;1656465;87;21054;-76
2022/07/29 04:32:25;;;;;;;5.20;2.90;;;;;;;21.08;100.00;100010.11;1656374;87;21059;-77
2022/07/29 04:34:52;;;;;;;8.60;3.52;;;;;;;21.15;100.00;100012.19;1656706;87;21023;-77
2022/07/29 04:37:20;;;;;;;5.47;3.20;;;;;;;21.22;100.00;100025.27;1656603;85;21047;-78
2022/07/29 04:39:46;;;;;;;8.95;3.30;;;;;;;21.32;100.00;100030.17;1696024;84;21033;-76
2022/07/29 04:42:13;;;;;;;7.62;3.00;;;;;;;21.48;100.00;100024.48;1714791;84;21044;-77
2022/07/29 04:44:43;;;;;;;6.83;3.47;;;;;;;21.64;100.00;100024.77;1714574;83;21463;-76
2022/07/29 04:47:10;;;;;;;6.75;3.30;;;;;;;21.80;100.00;100027.59;1720924;82;21064;-77
2022/07/29 04:49:39;;;;;;;7.33;3.40;;;;;;;21.96;100.00;100040.28;1738618;82;21004;-77
2022/07/29 04:52:06;;;;;;;4.08;3.08;;;;;;;22.06;100.00;100044.61;1738958;82;21156;-76
2022/07/29 04:54:35;;;;;;;5.17;3.20;;;;;;;22.23;100.00;100046.00;1739088;82;21049;-77
2022/07/29 04:57:03;;;;;;;7.12;3.42;;;;;;;22.37;100.00;100059.77;1738597;82;21033;-76
2022/07/29 04:59:30;;;;;;;7.47;3.47;;;;;;;22.48;100.00;100064.09;1726363;82;21006;-77
2022/07/29 05:01:58;;;;;;;5.83;3.20;;;;;;;22.56;100.00;100070.03;1715364;84;21026;-75
2022/07/29 05:04:25;;;;;;;7.30;3.27;;;;;;;22.70;100.00;100077.42;1714857;84;21100;-73
2022/07/29 05:06:53;;;;;;;6.97;3.80;;;;;;;22.86;100.00;100098.33;1715095;83;21055;-75
2022/07/29 05:09:21;;;;;;;7.95;3.70;;;;;;;22.99;100.00;100102.13;1707597;84;21002;-75
2022/07/29 05:11:50;;;;;;;9.75;4.05;;;;;;;23.16;100.00;100111.81;1707365;84;21003;-75
2022/07/29 05:14:17;;;;;;;9.85;5.35;;;;;;;23.31;100.00;100116.71;1707528;84;21010;-76
2022/07/29 05:16:44;;;;;;;9.53;4.58;;;;;;;23.43;100.00;100130.41;1706727;82;21081;-76
2022/07/29 05:19:11;;;;;;;13.13;4.95;;;;;;;23.53;100.00;100138.81;1707404;84;21050;-80
2022/07/29 05:21:38;;;;;;;29.85;26.60;;;;;;;23.66;100.00;100146.73;1707532;84;21046;-76
2022/07/29 05:24:05;;;;;;;10.50;6.67;;;;;;;23.68;100.00;100166.63;1707430;84;21017;-74
2022/07/29 05:26:32;;;;;;;25.55;20.32;;;;;;;23.78;100.00;100160.95;1707374;84;21007;-77
2022/07/29 05:29:00;;;;;;;13.43;7.87;;;;;;;23.94;100.00;100164.78;1707497;82;21034;-77
2022/07/29 05:31:27;;;;;;;19.57;11.12;;;;;;;24.07;100.00;100169.93;1707137;84;21026;-76
2022/07/29 05:33:54;;;;;;;6.95;4.50;;;;;;;24.17;100.00;100168.67;1707486;84;21050;-74
2022/07/29 05:36:22;;;;;;;16.07;6.80;;;;;;;24.22;100.00;100183.94;1707167;84;21034;-75
2022/07/29 05:38:50;;;;;;;56.70;38.85;;;;;;;24.23;100.00;100189.73;1707641;84;21049;-76
2022/07/29 05:41:18;;;;;;;13.55;6.87;;;;;;;24.32;100.00;100184.58;1707244;84;21030;-76
2022/07/29 05:43:45;;;;;;;66.60;59.65;;;;;;;24.52;100.00;100183.14;1707631;83;21549;-77
2022/07/29 05:46:13;;;;;;;8.18;6.20;;;;;;;24.72;100.00;100182.01;1707293;84;21627;-78
2022/07/29 05:48:40;;;;;;;11.12;4.92;;;;;;;24.95;100.00;100188.31;1708699;84;21039;-77
2022/07/29 05:51:09;;;;;;;7.15;3.95;;;;;;;25.14;100.00;100186.81;1710238;82;21085;-77
2022/07/29 05:53:38;;;;;;;13.43;8.38;;;;;;;25.30;100.00;100188.33;1709680;84;21023;-77
2022/07/29 05:56:12;;;;;;;7.05;4.58;;;;;;;25.46;100.00;100179.05;1709279;84;21199;-75
2022/07/29 05:58:39;;;;;;;7.42;4.67;;;;;;;25.53;100.00;100189.87;1708960;82;21504;-75
2022/07/29 06:01:06;;;;;;;16.77;10.48;;;;;;;25.60;100.00;100193.23;1708841;84;21038;-74
2022/07/29 06:03:34;;;;;;;15.58;5.62;;;;;;;25.71;100.00;100196.89;1709035;82;21070;-76
2022/07/29 06:06:07;;;;;;;11.88;5.47;;;;;;;25.86;100.00;100192.02;1709310;84;21023;-74
2022/07/29 06:08:36;;;;;;;14.58;7.03;;;;;;;25.99;100.00;100208.72;1647748;86;21537;-77
2022/07/29 06:11:03;;;;;;;13.98;5.12;;;;;;;26.00;100.00;100207.07;1647601;86;21143;-78
2022/07/29 06:13:31;;;;;;;7.62;3.70;;;;;;;26.12;100.00;100206.30;1647108;86;21589;-78
2022/07/29 06:16:00;;;;;;;8.33;4.10;;;;;;;26.21;100.00;100208.00;1636708;86;21201;-79
2022/07/29 06:18:28;;;;;;;6.75;3.98;;;;;;;26.18;100.00;100211.86;1626668;86;21015;-80
2022/07/29 06:20:57;;;;;;;9.45;4.17;;;;;;;26.28;100.00;100211.34;1646117;87;21039;-80
2022/07/29 06:23:26;;;;;;;4.95;3.70;;;;;;;26.32;100.00;100217.18;1646452;87;21141;-81
2022/07/29 06:25:54;;;;;;;9.98;4.67;;;;;;;26.36;100.00;100220.24;1646447;87;21158;-82
2022/07/29 06:28:21;;;;;;;12.35;3.90;;;;;;;26.40;100.00;100215.81;1625956;87;21018;-84
2022/07/29 06:30:49;;;;;;;47.03;41.30;;;;;;;26.48;100.00;100209.19;1647208;86;21539;-81
2022/07/29 06:33:18;;;;;;;16.97;11.97;;;;;;;26.65;100.00;100212.33;1647426;86;21082;-80
2022/07/29 06:35:47;;;;;;;8.15;3.50;;;;;;;26.83;100.00;100233.16;1646458;87;21091;-79
2022/07/29 06:38:14;;;;;;;11.08;3.67;;;;;;;26.88;100.00;100225.67;1646237;86;21051;-80
2022/07/29 06:41:03;;;;;;;9.85;4.40;;;;;;;26.92;100.00;100224.57;1646224;86;21126;-80
2022/07/29 06:43:37;;;;;;;9.55;3.30;;;;;;;26.88;100.00;100228.45;1646472;87;21047;-84
2022/07/29 06:46:06;;;;;;;8.95;3.60;;;;;;;27.07;100.00;100230.14;1681429;84;21497;-81
2022/07/29 06:48:34;;;;;;;9.25;4.80;;;;;;;27.34;100.00;100217.96;1694626;84;21593;-81
2022/07/29 06:51:03;;;;;;;12.47;4.80;;;;;;;27.56;100.00;100229.32;1685927;85;21031;-82
2022/07/29 06:53:33;;;;;;;11.48;4.40;;;;;;;27.58;100.00;100239.59;1685495;85;21050;-83
2022/07/29 06:56:02;;;;;;;10.40;3.83;;;;;;;27.62;100.00;100229.04;1659185;86;21043;-84
2022/07/29 06:58:31;;;;;;;7.40;4.00;;;;;;;27.77;100.00;100223.17;1661953;85;21524;-80
2022/07/29 07:01:01;;;;;;;5.33;3.40;;;;;;;27.99;100.00;100215.91;1637744;86;21072;-81
2022/07/29 07:03:28;;;;;;;6.97;3.77;;;;;;;28.21;100.00;100223.34;1636490;86;21209;-79
2022/07/29 07:05:55;;;;;;;6.53;3.17;;;;;;;28.32;100.00;100233.03;1636410;86;21039;-80
2022/07/29 07:08:29;;;;;;;7.78;3.75;;;;;;;28.34;100.00;100228.83;1660866;86;21075;-80
2022/07/29 07:11:26;;;;;;;7.97;3.33;;;;;;;28.50;100.00;100231.55;1644443;86;21073;-80
2022/07/29 07:13:57;;;;;;;10.23;3.25;;;;;;;28.42;100.00;100239.94;1564250;91;21528;-83
2022/07/29 07:16:28;;;;;;;7.25;2.45;;;;;;;28.23;100.00;100230.00;1545138;93;21013;-82
2022/07/29 07:18:58;;;;;;;5.03;2.65;;;;;;;28.36;100.00;100225.20;1566811;91;21167;-81
2022/07/29 07:21:26;;;;;;;7.33;3.27;;;;;;;28.69;100.00;100225.62;1581428;91;21137;-81
2022/07/29 07:23:53;;;;;;;6.42;3.15;;;;;;;28.91;100.00;100232.71;1523900;93;21095;-81
2022/07/29 07:26:20;;;;;;;9.40;3.67;;;;;;;28.98;100.00;100238.21;1565295;92;21127;-81
2022/07/29 07:28:50;;;;;;;10.90;5.47;;;;;;;29.04;100.00;100235.39;1581450;91;21111;-81
2022/07/29 07:31:19;;;;;;;9.08;3.83;;;;;;;29.19;100.00;100235.89;1543062;93;21121;-83
2022/07/29 07:33:47;;;;;;;13.98;3.75;;;;;;;29.40;100.00;100229.02;1566656;92;21154;-80
2022/07/29 07:36:14;;;;;;;7.78;3.50;;;;;;;29.77;100.00;100226.18;1582296;91;21051;-82
2022/07/29 07:38:41;;;;;;;3.02;2.70;;;;;;;30.03;100.00;100236.48;1544047;93;21110;-81
2022/07/29 07:41:08;;;;;;;9.73;2.95;;;;;;;29.99;100.00;100240.97;1566557;92;21131;-84
2022/07/29 07:43:36;;;;;;;7.45;2.90;;;;;;;30.06;100.00;100234.48;1582804;91;21141;-86
2022/07/29 07:46:04;;;;;;;6.30;3.17;;;;;;;30.24;100.00;100238.47;1592582;90;21138;-80
2022/07/29 07:48:32;;;;;;;7.90;3.17;;;;;;;30.30;100.00;100237.84;1641927;87;21061;-78
2022/07/29 07:50:59;;;;;;;7.53;3.00;;;;;;;30.27;100.00;100246.22;1642605;87;21125;-77
2022/07/29 07:53:26;;;;;;;48.25;43.35;;;;;;;30.48;100.00;100248.78;1637628;87;21587;-80
2022/07/29 07:55:53;;;;;;;10.78;6.35;;;;;;;30.77;100.00;100244.45;1644568;87;21081;-83
2022/07/29 07:58:20;;;;;;;6.42;2.75;;;;;;;31.09;100.00;100257.42;1645363;87;21065;-81
2022/07/29 08:00:49;;;;;;;22.37;13.40;;;;;;;31.31;100.00;100256.23;1668601;86;21012;-77
2022/07/29 08:03:17;;;;;;;9.50;4.83;;;;;;;31.56;100.00;100255.56;1732129;83;21106;-82
2022/07/29 08:05:48;;;;;;;7.50;2.60;;;;;;;31.85;100.00;100262.28;1732366;83;21112;-80
2022/07/29 08:08:14;;;;;;;6.10;2.50;;;;;;;32.11;100.00;100255.66;1702488;84;21071;-79
2022/07/29 08:10:52;;;;;;;6.62;2.02;;;;;;;32.35;100.00;100262.45;1702427;84;21047;-79
2022/07/29 08:13:21;;;;;;;6.17;3.62;;;;;;;32.49;89.44;100262.98;1706738;83;21006;-76
2022/07/29 08:15:57;;;;;;;24.00;12.40;;;;;;;32.29;93.66;100262.28;1758897;82;21030;-81
2022/07/29 08:18:28;;;;;;;30.75;21.45;;;;;;;32.37;91.83;100257.94;1728418;83;21612;-75
2022/07/29 08:20:55;;;;;;;7.85;5.03;;;;;;;32.54;89.94;100267.89;1729763;82;21038;-76
2022/07/29 08:23:24;;;;;;;10.65;2.98;;;;;;;32.78;88.34;100260.45;1735564;82;21070;-77
2022/07/29 08:25:51;;;;;;;13.05;2.75;;;;;;;32.62;77.21;100271.16;1735339;82;21038;-77
2022/07/29 08:28:18;;;;;;;14.28;6.83;;;;;;;32.48;82.68;100270.56;1734661;82;21066;-78
2022/07/29 08:30:44;;;;;;;5.37;2.83;;;;;;;32.66;82.28;100270.20;1696940;82;21012;-78
2022/07/29 08:33:11;;;;;;;8.43;2.80;;;;;;;32.84;79.56;100268.39;1685998;84;21072;-80
2022/07/29 08:35:39;;;;;;;5.80;2.55;;;;;;;32.72;65.99;100272.31;1694282;85;21483;-78
2022/07/29 08:38:07;;;;;;;5.10;2.20;;;;;;;32.51;73.18;100275.55;1678853;85;21049;-79
2022/07/29 08:40:34;;;;;;;6.22;2.15;;;;;;;32.61;77.52;100274.51;1694528;85;21026;-77
2022/07/29 08:43:10;;;;;;;8.80;2.90;;;;;;;32.81;79.15;100267.64;1679178;85;21017;-78
2022/07/29 08:45:49;;;;;;;4.25;2.30;;;;;;;32.84;75.89;100268.39;1694160;83;21519;-77
2022/07/29 08:48:18;;;;;;;5.25;2.70;;;;;;;32.54;68.37;100274.08;1582187;89;21122;-80
2022/07/29 08:50:46;;;;;;;10.25;2.52;;;;;;;32.31;73.93;100275.96;1609945;88;21148;-79
2022/07/29 08:53:17;;;;;;;6.90;2.62;;;;;;;32.49;78.23;100275.58;1609866;89;21566;-84
2022/07/29 08:55:47;;;;;;;9.53;5.90;;;;;;;32.75;79.46;100271.69;1662847;86;21046;-82
2022/07/29 08:58:15;;;;;;;4.95;2.37;;;;;;;32.93;72.18;100267.08;1637635;87;21023;-82
2022/07/29 09:00:48;;;;;;;5.12;2.20;;;;;;;32.83;66.49;100268.70;1692672;84;21531;-81
2022/07/29 09:03:19;;;;;;;8.83;2.50;;;;;;;32.68;71.02;100279.11;1709895;84;21141;-82
2022/07/29 09:05:46;;;;;;;4.87;2.37;;;;;;;32.81;76.80;100269.05;1711073;84;21026;-84
2022/07/29 09:08:18;;;;;;;5.97;2.35;;;;;;;33.11;77.36;100268.89;1710843;84;21065;-84
2022/07/29 09:10:46;;;;;;;7.45;3.02;;;;;;;33.45;74.46;100266.70;1710497;84;21076;-83
2022/07/29 09:13:14;;;;;;;12.75;2.52;;;;;;;33.75;75.42;100265.65;1712360;84;21515;-79
2022/07/29 09:15:42;;;;;;;7.35;2.55;;;;;;;33.85;67.22;100267.59;1682521;84;21064;-79
2022/07/29 09:18:12;;;;;;;6.95;2.40;;;;;;;33.88;69.73;100263.34;1651707;85;21027;-77
2022/07/29 09:23:25;;;;;;;4.95;2.45;;;;;;;33.53;58.02;100267.31;1629564;87;21081;-78
2022/07/29 09:25:52;;;;;;;3.87;2.40;;;;;;;33.05;61.32;100262.33;1629415;88;21040;-80
2022/07/29 09:28:19;;;;;;;2.30;2.10;;;;;;;32.78;59.42;100256.25;1629431;88;21064;-79
2022/07/29 09:31:01;;;;;;;8.40;2.70;;;;;;;32.38;61.73;100258.19;1629047;88;21585;-79
2022/07/29 09:33:38;;;;;;;4.60;2.83;;;;;;;32.30;71.00;100256.95;1629212;88;21542;-80
2022/07/29 09:36:07;;;;;;;15.43;3.20;;;;;;;32.72;76.24;100257.77;1629563;88;21052;-78
2022/07/29 09:38:35;;;;;;;9.73;2.72;;;;;;;33.16;73.56;100259.55;1629690;88;21029;-79
2022/07/29 09:41:04;;;;;;;20.55;3.70;;;;;;;33.51;73.87;100246.38;1629543;88;21147;-78
2022/07/29 09:43:31;;;;;;;4.72;2.40;;;;;;;33.84;71.05;100252.52;1629273;88;21088;-77
2022/07/29 09:46:13;;;;;;;7.72;2.50;;;;;;;34.14;67.76;100254.19;1683992;85;21118;-77
2022/07/29 09:48:41;;;;;;;11.08;2.90;;;;;;;34.34;65.33;100257.03;1698200;84;21537;-78
2022/07/29 09:51:19;;;;;;;8.05;2.45;;;;;;;34.26;60.95;100247.41;1680924;85;21518;-78
2022/07/29 09:53:47;;;;;;;9.48;2.60;;;;;;;34.21;61.77;100244.75;1681100;85;21517;-78
2022/07/29 09:56:14;;;;;;;6.15;2.02;;;;;;;34.26;62.89;100239.58;1681195;85;21520;-78
2022/07/29 09:58:41;;;;;;;5.17;2.15;;;;;;;34.40;60.79;100236.87;1682371;85;21092;-79
2022/07/29 10:01:09;;;;;;;6.95;2.52;;;;;;;34.39;59.08;100240.05;1708017;84;21031;-80
2022/07/29 10:03:52;;;;;;;4.85;2.50;;;;;;;34.43;60.45;100239.63;1712607;83;21024;-77
2022/07/29 10:06:20;;;;;;;6.62;3.87;;;;;;;34.58;54.13;100236.91;1711854;84;21066;-77
2022/07/29 10:08:49;;;;;;;18.02;3.40;;;;;;;34.61;55.49;100234.28;1709408;84;21050;-79
2022/07/29 10:11:18;;;;;;;7.95;3.08;;;;;;;34.73;58.92;100239.88;1709434;84;21059;-81
2022/07/29 10:13:47;;;;;;;9.23;4.83;;;;;;;34.81;56.46;100230.61;1709342;84;21067;-80
2022/07/29 10:16:15;;;;;;;4.67;2.52;;;;;;;34.93;61.15;100235.58;1709529;84;21055;-80
2022/07/29 10:18:43;;;;;;;18.50;3.70;;;;;;;35.09;58.02;100240.11;1709578;84;21025;-81
2022/07/29 10:21:12;;;;;;;6.10;2.40;;;;;;;35.27;53.82;100243.76;1709761;84;21051;-85
2022/07/29 10:23:40;;;;;;;2.55;1.90;;;;;;;35.32;49.82;100245.81;1688057;84;21036;-82
2022/07/29 10:26:08;;;;;;;7.17;2.35;;;;;;;35.30;47.20;100238.88;1710019;84;21051;-79
2022/07/29 10:28:36;;;;;;;20.92;3.85;;;;;;;35.32;48.02;100230.94;1687450;84;21044;-80
2022/07/29 10:31:06;;;;;;;3.17;2.17;;;;;;;35.15;49.86;100236.81;1709466;84;21035;-78
2022/07/29 10:33:39;;;;;;;7.12;2.40;;;;;;;35.09;48.26;100242.92;1709110;84;21482;-79
2022/07/29 10:36:33;;;;;;;8.13;3.02;;;;;;;34.65;47.71;100228.83;1709098;84;20992;-79
2022/07/29 10:39:34;;;;;;;5.30;2.22;;;;;;;34.28;51.23;100232.51;1709152;84;21106;-79
2022/07/29 10:42:23;;;;;;;6.55;2.55;;;;;;;34.29;53.82;100244.55;1705628;84;21043;-80
2022/07/29 10:44:51;;;;;;;9.08;2.45;;;;;;;34.50;54.87;100238.56;1666645;86;21054;-82
2022/07/29 10:47:26;;;;;;;8.18;2.55;;;;;;;34.66;54.30;100244.53;1666336;86;21071;-84
2022/07/29 10:50:07;;;;;;;6.30;2.22;;;;;;;34.84;57.13;100235.57;1676219;85;21532;-82
2022/07/29 10:52:56;;;;;;;7.78;2.40;;;;;;;35.06;53.12;100230.94;1679470;85;21066;-84
2022/07/29 10:55:44;;;;;;;5.33;2.62;;;;;;;35.15;53.03;100232.59;1680210;85;21053;-82
2022/07/29 10:58:23;;;;;;;;;;;;;;;35.24;51.32;100228.41;1682973;85;21181;-82
2022/07/29 11:00:54;;;;;;;7.92;2.67;;;;;;;35.26;51.65;100229.48;1679279;85;20133;-81
2022/07/29 11:03:48;;;;;;;9.20;2.70;;;;;;;35.30;52.20;100231.27;1680219;85;21037;-80
2022/07/29 11:06:17;;;;;;;7.17;2.90;;;;;;;35.35;51.54;100235.31;1680047;85;21030;-82
2022/07/29 11:08:43;;;;;;;9.90;3.50;;;;;;;35.27;48.10;100226.89;1679655;85;20994;-82
2022/07/29 11:11:31;;;;;;;12.73;3.08;;;;;;;35.00;47.05;100231.69;1678108;85;21105;-82
2022/07/29 11:13:58;;;;;;;19.32;7.58;;;;;;;34.86;50.78;100222.02;1680353;85;21022;-81
2022/07/29 11:16:32;;;;;;;31.97;14.98;;;;;;;35.01;53.92;100226.33;1679903;85;21115;-84
2022/07/29 11:19:18;;;;;;;15.80;6.17;;;;;;;35.09;48.41;100219.05;1675029;85;21126;-85
2022/07/29 11:21:47;;;;;;;80.25;52.45;;;;;;;34.57;46.89;100228.27;1679717;85;21512;-81
2022/07/29 11:24:27;;;;;;;19.75;10.35;;;;;;;34.19;49.52;100224.62;1678920;85;21062;-82
2022/07/29 11:27:10;;;;;;;10.63;4.87;;;;;;;34.01;51.71;100226.52;1679321;85;21543;-84
2022/07/29 11:29:49;;;;;;;5.78;3.27;;;;;;;34.12;55.35;100223.68;1622795;87;21089;-84
2022/07/29 11:32:22;;;;;;;14.40;3.12;;;;;;;34.41;56.22;100226.50;1621330;88;21573;-84
2022/07/29 11:35:12;;;;;;;9.85;3.90;;;;;;;34.68;55.33;100225.38;1624540;88;21055;-84
2022/07/29 11:37:39;;;;;;;11.85;3.40;;;;;;;34.83;53.93;100223.26;1623446;88;21047;-81
2022/07/29 11:40:11;;;;;;;11.05;3.02;;;;;;;34.91;53.75;100216.23;1603245;88;21079;-79
2022/07/29 11:42:42;;;;;;;6.80;2.95;;;;;;;35.00;52.17;100224.66;1634405;87;21126;-79